KMKO/MKO METAR and TAF weather

Enter ICAO airport designator
Station Type Date Time Source
KMKO METAR 2019/12/06 23:53 UTC NOAA

KMKO 062353Z AUTO 01005KT 10SM CLR 06/01 A3033 RMK AO2 SLP273 T00560006 10117 20056 51017


Station Type Date Time Source
KMKO Decoded METAR 2019/12/06 23:53 UTC NOAA

MUSKOGEE DAVIS FIELD, OK, United States (KMKO) 35-39N 95-22W 185M
Dec 06, 2019 - 06:53 PM EST / 2019.12.06 2353 UTC
Wind: from the N (010 degrees) at 6 MPH (5 KT):0
Visibility: 10 mile(s):0
Sky conditions: clear
Temperature: 42.1 F (5.6 C)
Dew Point: 33.1 F (0.6 C)
Relative Humidity: 70%
Pressure (altimeter): 30.33 in. Hg (1027 hPa)
Pressure tendency: 0.05 inches (1.7 hPa) higher than three hours ago
ob: KMKO 062353Z AUTO 01005KT 10SM CLR 06/01 A3033 RMK AO2 SLP273 T00560006 10117 20056 51017
cycle: 0

Station Type Date Time Source
KMKO TAF UTC NOAA

Error!

Example: see airport list